sensor_id;sensor_type;location;lat;lon;timestamp;P1;durP1;ratioP1;P2;durP2;ratioP2
25191;SDS011;13143;50.924;5.320;2023-06-10T00:00:43;10.02;;;8.43;;
25191;SDS011;13143;50.924;5.320;2023-06-10T00:03:09;14.95;;;9.02;;
25191;SDS011;13143;50.924;5.320;2023-06-10T00:05:36;14.85;;;8.63;;
25191;SDS011;13143;50.924;5.320;2023-06-10T00:08:04;14.02;;;9.05;;
25191;SDS011;13143;50.924;5.320;2023-06-10T00:10:34;14.57;;;8.52;;
25191;SDS011;13143;50.924;5.320;2023-06-10T00:13:04;11.13;;;8.77;;
25191;SDS011;13143;50.924;5.320;2023-06-10T00:15:34;14.52;;;9.27;;
25191;SDS011;13143;50.924;5.320;2023-06-10T00:18:03;13.10;;;8.57;;
25191;SDS011;13143;50.924;5.320;2023-06-10T00:20:30;14.05;;;9.38;;
25191;SDS011;13143;50.924;5.320;2023-06-10T00:22:57;10.70;;;9.05;;
25191;SDS011;13143;50.924;5.320;2023-06-10T00:25:24;16.33;;;9.77;;
25191;SDS011;13143;50.924;5.320;2023-06-10T00:27:51;12.90;;;9.15;;
25191;SDS011;13143;50.924;5.320;2023-06-10T00:30:17;11.48;;;8.93;;
25191;SDS011;13143;50.924;5.320;2023-06-10T00:32:43;13.85;;;10.05;;
25191;SDS011;13143;50.924;5.320;2023-06-10T00:35:10;14.10;;;9.68;;
25191;SDS011;13143;50.924;5.320;2023-06-10T00:37:36;15.48;;;9.82;;
25191;SDS011;13143;50.924;5.320;2023-06-10T00:40:03;11.40;;;9.82;;
25191;SDS011;13143;50.924;5.320;2023-06-10T00:42:29;11.85;;;9.75;;
25191;SDS011;13143;50.924;5.320;2023-06-10T00:44:56;11.98;;;9.05;;
25191;SDS011;13143;50.924;5.320;2023-06-10T00:47:22;13.00;;;9.68;;
25191;SDS011;13143;50.924;5.320;2023-06-10T00:49:49;14.15;;;10.13;;
25191;SDS011;13143;50.924;5.320;2023-06-10T00:52:16;14.88;;;10.00;;
25191;SDS011;13143;50.924;5.320;2023-06-10T00:54:44;14.38;;;9.40;;
25191;SDS011;13143;50.924;5.320;2023-06-10T00:57:10;12.70;;;9.18;;
25191;SDS011;13143;50.924;5.320;2023-06-10T00:59:38;12.65;;;9.85;;
25191;SDS011;13143;50.924;5.320;2023-06-10T01:02:06;11.32;;;9.88;;
25191;SDS011;13143;50.924;5.320;2023-06-10T01:04:33;14.25;;;9.63;;
25191;SDS011;13143;50.924;5.320;2023-06-10T01:10:09;14.70;;;9.80;;
25191;SDS011;13143;50.924;5.320;2023-06-10T01:12:49;13.38;;;9.25;;
25191;SDS011;13143;50.924;5.320;2023-06-10T01:15:24;11.75;;;9.50;;
25191;SDS011;13143;50.924;5.320;2023-06-10T01:18:04;12.38;;;9.68;;
25191;SDS011;13143;50.924;5.320;2023-06-10T01:20:34;16.85;;;9.40;;
25191;SDS011;13143;50.924;5.320;2023-06-10T01:23:05;13.02;;;10.13;;
25191;SDS011;13143;50.924;5.320;2023-06-10T01:25:32;15.15;;;8.98;;
25191;SDS011;13143;50.924;5.320;2023-06-10T01:28:13;14.70;;;9.45;;
25191;SDS011;13143;50.924;5.320;2023-06-10T01:31:13;12.88;;;9.98;;
25191;SDS011;13143;50.924;5.320;2023-06-10T01:33:45;15.98;;;8.88;;
25191;SDS011;13143;50.924;5.320;2023-06-10T01:36:15;13.65;;;9.50;;
25191;SDS011;13143;50.924;5.320;2023-06-10T01:38:43;13.73;;;9.63;;
25191;SDS011;13143;50.924;5.320;2023-06-10T01:41:13;12.95;;;9.63;;
25191;SDS011;13143;50.924;5.320;2023-06-10T01:43:42;12.82;;;9.57;;
25191;SDS011;13143;50.924;5.320;2023-06-10T01:46:10;15.48;;;10.10;;
25191;SDS011;13143;50.924;5.320;2023-06-10T01:48:37;12.35;;;9.63;;
25191;SDS011;13143;50.924;5.320;2023-06-10T01:51:04;14.63;;;10.13;;
25191;SDS011;13143;50.924;5.320;2023-06-10T01:53:30;11.10;;;9.25;;
25191;SDS011;13143;50.924;5.320;2023-06-10T01:55:56;16.17;;;9.52;;
25191;SDS011;13143;50.924;5.320;2023-06-10T01:58:22;13.00;;;9.85;;
25191;SDS011;13143;50.924;5.320;2023-06-10T02:00:49;17.70;;;9.85;;
25191;SDS011;13143;50.924;5.320;2023-06-10T02:03:15;19.35;;;10.35;;
25191;SDS011;13143;50.924;5.320;2023-06-10T02:05:41;11.85;;;10.13;;
25191;SDS011;13143;50.924;5.320;2023-06-10T02:08:07;12.27;;;9.68;;
25191;SDS011;13143;50.924;5.320;2023-06-10T02:10:33;15.20;;;10.50;;
25191;SDS011;13143;50.924;5.320;2023-06-10T02:12:59;14.75;;;11.05;;
25191;SDS011;13143;50.924;5.320;2023-06-10T02:15:25;15.43;;;10.13;;
25191;SDS011;13143;50.924;5.320;2023-06-10T02:17:52;15.90;;;10.18;;
25191;SDS011;13143;50.924;5.320;2023-06-10T02:20:18;23.50;;;10.32;;
25191;SDS011;13143;50.924;5.320;2023-06-10T02:22:44;17.05;;;10.50;;
25191;SDS011;13143;50.924;5.320;2023-06-10T02:25:10;12.68;;;10.05;;
25191;SDS011;13143;50.924;5.320;2023-06-10T02:27:36;13.82;;;9.77;;
25191;SDS011;13143;50.924;5.320;2023-06-10T02:30:02;17.58;;;10.98;;
25191;SDS011;13143;50.924;5.320;2023-06-10T02:32:29;17.13;;;10.52;;
25191;SDS011;13143;50.924;5.320;2023-06-10T02:34:55;13.50;;;10.40;;
25191;SDS011;13143;50.924;5.320;2023-06-10T02:37:21;17.92;;;11.07;;
25191;SDS011;13143;50.924;5.320;2023-06-10T02:39:47;15.45;;;10.68;;
25191;SDS011;13143;50.924;5.320;2023-06-10T02:42:13;14.70;;;10.07;;
25191;SDS011;13143;50.924;5.320;2023-06-10T02:44:40;16.05;;;10.65;;
25191;SDS011;13143;50.924;5.320;2023-06-10T02:47:06;13.57;;;10.90;;
25191;SDS011;13143;50.924;5.320;2023-06-10T02:49:32;15.82;;;10.40;;
25191;SDS011;13143;50.924;5.320;2023-06-10T02:51:58;14.30;;;10.55;;
25191;SDS011;13143;50.924;5.320;2023-06-10T02:54:24;14.60;;;10.55;;
25191;SDS011;13143;50.924;5.320;2023-06-10T02:56:51;13.32;;;10.27;;
25191;SDS011;13143;50.924;5.320;2023-06-10T02:59:18;15.80;;;11.52;;
25191;SDS011;13143;50.924;5.320;2023-06-10T03:01:45;15.13;;;11.65;;
25191;SDS011;13143;50.924;5.320;2023-06-10T03:04:12;15.70;;;10.98;;
25191;SDS011;13143;50.924;5.320;2023-06-10T03:06:40;12.73;;;10.98;;
25191;SDS011;13143;50.924;5.320;2023-06-10T03:09:06;16.05;;;10.50;;
25191;SDS011;13143;50.924;5.320;2023-06-10T03:11:33;21.90;;;11.63;;
25191;SDS011;13143;50.924;5.320;2023-06-10T03:13:59;14.07;;;10.60;;
25191;SDS011;13143;50.924;5.320;2023-06-10T03:16:25;18.17;;;11.07;;
25191;SDS011;13143;50.924;5.320;2023-06-10T03:18:53;17.27;;;11.20;;
25191;SDS011;13143;50.924;5.320;2023-06-10T03:21:19;17.67;;;11.23;;
25191;SDS011;13143;50.924;5.320;2023-06-10T03:23:46;14.20;;;11.20;;
25191;SDS011;13143;50.924;5.320;2023-06-10T03:26:12;14.27;;;11.95;;
25191;SDS011;13143;50.924;5.320;2023-06-10T03:28:39;14.15;;;10.95;;
25191;SDS011;13143;50.924;5.320;2023-06-10T03:31:06;19.35;;;11.32;;
25191;SDS011;13143;50.924;5.320;2023-06-10T03:33:32;15.00;;;11.45;;
25191;SDS011;13143;50.924;5.320;2023-06-10T03:35:58;16.13;;;10.48;;
25191;SDS011;13143;50.924;5.320;2023-06-10T03:38:25;14.40;;;10.80;;
25191;SDS011;13143;50.924;5.320;2023-06-10T03:40:51;16.13;;;11.10;;
25191;SDS011;13143;50.924;5.320;2023-06-10T03:43:17;16.45;;;11.52;;
25191;SDS011;13143;50.924;5.320;2023-06-10T03:45:43;13.32;;;10.55;;
25191;SDS011;13143;50.924;5.320;2023-06-10T03:48:09;15.10;;;11.05;;
25191;SDS011;13143;50.924;5.320;2023-06-10T03:50:36;15.93;;;10.57;;
25191;SDS011;13143;50.924;5.320;2023-06-10T03:53:02;13.05;;;11.65;;
25191;SDS011;13143;50.924;5.320;2023-06-10T03:55:28;20.08;;;10.93;;
25191;SDS011;13143;50.924;5.320;2023-06-10T03:57:55;17.13;;;11.20;;
25191;SDS011;13143;50.924;5.320;2023-06-10T04:00:21;17.77;;;11.02;;
25191;SDS011;13143;50.924;5.320;2023-06-10T04:02:47;14.57;;;11.00;;
25191;SDS011;13143;50.924;5.320;2023-06-10T04:05:15;13.18;;;11.27;;
25191;SDS011;13143;50.924;5.320;2023-06-10T04:07:42;15.50;;;11.43;;
25191;SDS011;13143;50.924;5.320;2023-06-10T04:10:09;19.00;;;10.43;;
25191;SDS011;13143;50.924;5.320;2023-06-10T04:12:36;21.35;;;11.68;;
25191;SDS011;13143;50.924;5.320;2023-06-10T04:15:03;14.63;;;11.00;;
25191;SDS011;13143;50.924;5.320;2023-06-10T04:17:30;17.00;;;11.82;;
25191;SDS011;13143;50.924;5.320;2023-06-10T04:19:56;18.17;;;11.90;;
25191;SDS011;13143;50.924;5.320;2023-06-10T04:22:23;16.30;;;11.35;;
25191;SDS011;13143;50.924;5.320;2023-06-10T04:24:50;18.52;;;12.48;;
25191;SDS011;13143;50.924;5.320;2023-06-10T04:27:16;17.40;;;12.02;;
25191;SDS011;13143;50.924;5.320;2023-06-10T04:29:42;14.20;;;12.30;;
25191;SDS011;13143;50.924;5.320;2023-06-10T04:32:08;23.63;;;15.13;;
25191;SDS011;13143;50.924;5.320;2023-06-10T04:34:34;16.20;;;12.98;;
25191;SDS011;13143;50.924;5.320;2023-06-10T04:37:00;17.73;;;13.52;;
25191;SDS011;13143;50.924;5.320;2023-06-10T04:39:27;16.80;;;13.00;;
25191;SDS011;13143;50.924;5.320;2023-06-10T04:41:53;18.85;;;13.70;;
25191;SDS011;13143;50.924;5.320;2023-06-10T04:44:19;20.70;;;13.50;;
25191;SDS011;13143;50.924;5.320;2023-06-10T04:46:45;21.33;;;13.25;;
25191;SDS011;13143;50.924;5.320;2023-06-10T04:49:11;19.20;;;13.30;;
25191;SDS011;13143;50.924;5.320;2023-06-10T04:51:39;18.73;;;12.48;;
25191;SDS011;13143;50.924;5.320;2023-06-10T04:54:06;16.48;;;13.10;;
25191;SDS011;13143;50.924;5.320;2023-06-10T04:56:32;16.52;;;12.35;;
25191;SDS011;13143;50.924;5.320;2023-06-10T04:58:59;24.83;;;12.63;;
25191;SDS011;13143;50.924;5.320;2023-06-10T05:01:25;19.13;;;12.10;;
25191;SDS011;13143;50.924;5.320;2023-06-10T05:03:53;15.27;;;12.52;;
25191;SDS011;13143;50.924;5.320;2023-06-10T05:06:19;15.32;;;11.65;;
25191;SDS011;13143;50.924;5.320;2023-06-10T05:08:45;21.17;;;13.07;;
25191;SDS011;13143;50.924;5.320;2023-06-10T05:11:11;16.80;;;12.55;;
25191;SDS011;13143;50.924;5.320;2023-06-10T05:13:37;17.27;;;11.40;;
25191;SDS011;13143;50.924;5.320;2023-06-10T05:16:05;19.08;;;12.63;;
25191;SDS011;13143;50.924;5.320;2023-06-10T05:18:33;20.30;;;11.73;;
25191;SDS011;13143;50.924;5.320;2023-06-10T05:20:59;16.20;;;11.75;;
25191;SDS011;13143;50.924;5.320;2023-06-10T05:23:25;18.75;;;12.75;;
25191;SDS011;13143;50.924;5.320;2023-06-10T05:25:51;15.93;;;11.93;;
25191;SDS011;13143;50.924;5.320;2023-06-10T05:28:17;31.75;;;12.80;;
25191;SDS011;13143;50.924;5.320;2023-06-10T05:30:43;18.83;;;13.32;;
25191;SDS011;13143;50.924;5.320;2023-06-10T05:33:10;17.48;;;12.23;;
25191;SDS011;13143;50.924;5.320;2023-06-10T05:35:36;15.00;;;12.18;;
25191;SDS011;13143;50.924;5.320;2023-06-10T05:38:02;14.07;;;10.88;;
25191;SDS011;13143;50.924;5.320;2023-06-10T05:40:28;15.98;;;11.05;;
25191;SDS011;13143;50.924;5.320;2023-06-10T05:42:55;19.77;;;11.98;;
25191;SDS011;13143;50.924;5.320;2023-06-10T05:45:21;17.70;;;12.02;;
25191;SDS011;13143;50.924;5.320;2023-06-10T05:47:47;16.55;;;11.75;;
25191;SDS011;13143;50.924;5.320;2023-06-10T05:50:13;17.48;;;12.00;;
25191;SDS011;13143;50.924;5.320;2023-06-10T05:52:39;15.55;;;12.13;;
25191;SDS011;13143;50.924;5.320;2023-06-10T05:55:08;19.23;;;12.55;;
25191;SDS011;13143;50.924;5.320;2023-06-10T05:57:34;18.05;;;12.43;;
25191;SDS011;13143;50.924;5.320;2023-06-10T06:00:01;15.82;;;12.00;;
25191;SDS011;13143;50.924;5.320;2023-06-10T06:02:27;19.50;;;12.00;;
25191;SDS011;13143;50.924;5.320;2023-06-10T06:04:53;13.30;;;11.02;;
25191;SDS011;13143;50.924;5.320;2023-06-10T06:07:19;17.27;;;10.85;;
25191;SDS011;13143;50.924;5.320;2023-06-10T06:09:46;17.70;;;11.07;;
25191;SDS011;13143;50.924;5.320;2023-06-10T06:12:13;17.10;;;11.65;;
25191;SDS011;13143;50.924;5.320;2023-06-10T06:14:39;18.08;;;11.70;;
25191;SDS011;13143;50.924;5.320;2023-06-10T06:17:05;14.98;;;10.68;;
25191;SDS011;13143;50.924;5.320;2023-06-10T06:19:32;16.70;;;11.30;;
25191;SDS011;13143;50.924;5.320;2023-06-10T06:21:58;15.50;;;10.90;;
25191;SDS011;13143;50.924;5.320;2023-06-10T06:24:24;13.80;;;10.45;;
25191;SDS011;13143;50.924;5.320;2023-06-10T06:26:51;16.08;;;10.48;;
25191;SDS011;13143;50.924;5.320;2023-06-10T06:29:17;13.27;;;11.15;;
25191;SDS011;13143;50.924;5.320;2023-06-10T06:31:43;18.40;;;10.98;;
25191;SDS011;13143;50.924;5.320;2023-06-10T06:34:09;16.92;;;10.32;;
25191;SDS011;13143;50.924;5.320;2023-06-10T06:36:35;15.63;;;10.43;;
25191;SDS011;13143;50.924;5.320;2023-06-10T06:39:02;18.52;;;10.52;;
25191;SDS011;13143;50.924;5.320;2023-06-10T06:41:28;15.50;;;10.30;;
25191;SDS011;13143;50.924;5.320;2023-06-10T06:43:55;13.18;;;10.43;;
25191;SDS011;13143;50.924;5.320;2023-06-10T06:46:21;16.10;;;10.40;;
25191;SDS011;13143;50.924;5.320;2023-06-10T06:48:47;17.25;;;9.73;;
25191;SDS011;13143;50.924;5.320;2023-06-10T06:51:14;13.65;;;10.35;;
25191;SDS011;13143;50.924;5.320;2023-06-10T06:53:40;15.55;;;10.93;;
25191;SDS011;13143;50.924;5.320;2023-06-10T06:56:12;14.05;;;10.40;;
25191;SDS011;13143;50.924;5.320;2023-06-10T06:58:39;14.07;;;11.50;;
25191;SDS011;13143;50.924;5.320;2023-06-10T07:01:05;18.30;;;10.57;;
25191;SDS011;13143;50.924;5.320;2023-06-10T07:03:31;19.92;;;10.85;;
25191;SDS011;13143;50.924;5.320;2023-06-10T07:05:57;17.20;;;11.07;;
25191;SDS011;13143;50.924;5.320;2023-06-10T07:08:24;16.50;;;11.23;;
25191;SDS011;13143;50.924;5.320;2023-06-10T07:10:50;14.75;;;10.10;;
25191;SDS011;13143;50.924;5.320;2023-06-10T07:13:16;16.25;;;9.88;;
25191;SDS011;13143;50.924;5.320;2023-06-10T07:15:42;22.77;;;9.82;;
25191;SDS011;13143;50.924;5.320;2023-06-10T07:18:08;14.52;;;9.95;;
25191;SDS011;13143;50.924;5.320;2023-06-10T07:20:34;16.20;;;10.90;;
25191;SDS011;13143;50.924;5.320;2023-06-10T07:23:01;11.70;;;10.15;;
25191;SDS011;13143;50.924;5.320;2023-06-10T07:25:27;12.45;;;10.05;;
25191;SDS011;13143;50.924;5.320;2023-06-10T07:27:53;14.15;;;10.15;;
25191;SDS011;13143;50.924;5.320;2023-06-10T07:30:19;17.77;;;10.15;;
25191;SDS011;13143;50.924;5.320;2023-06-10T07:32:45;17.27;;;9.57;;
25191;SDS011;13143;50.924;5.320;2023-06-10T07:35:11;16.90;;;10.10;;
25191;SDS011;13143;50.924;5.320;2023-06-10T07:37:37;14.43;;;9.70;;
25191;SDS011;13143;50.924;5.320;2023-06-10T07:40:04;12.82;;;9.90;;
25191;SDS011;13143;50.924;5.320;2023-06-10T07:42:37;14.52;;;10.15;;
25191;SDS011;13143;50.924;5.320;2023-06-10T07:45:03;17.88;;;10.02;;
25191;SDS011;13143;50.924;5.320;2023-06-10T07:47:30;14.43;;;9.75;;
25191;SDS011;13143;50.924;5.320;2023-06-10T07:49:58;13.60;;;10.10;;
25191;SDS011;13143;50.924;5.320;2023-06-10T07:52:24;14.57;;;10.50;;
25191;SDS011;13143;50.924;5.320;2023-06-10T07:54:51;15.55;;;9.70;;
25191;SDS011;13143;50.924;5.320;2023-06-10T07:57:18;12.85;;;9.95;;
25191;SDS011;13143;50.924;5.320;2023-06-10T07:59:44;15.32;;;9.40;;
25191;SDS011;13143;50.924;5.320;2023-06-10T08:02:11;18.77;;;10.23;;
25191;SDS011;13143;50.924;5.320;2023-06-10T08:04:37;18.48;;;10.05;;
25191;SDS011;13143;50.924;5.320;2023-06-10T08:07:03;16.92;;;10.48;;
25191;SDS011;13143;50.924;5.320;2023-06-10T08:09:30;16.02;;;9.77;;
25191;SDS011;13143;50.924;5.320;2023-06-10T08:11:56;14.15;;;10.02;;
25191;SDS011;13143;50.924;5.320;2023-06-10T08:14:22;15.25;;;10.45;;
25191;SDS011;13143;50.924;5.320;2023-06-10T08:16:48;13.20;;;10.20;;
25191;SDS011;13143;50.924;5.320;2023-06-10T08:19:14;12.18;;;9.80;;
25191;SDS011;13143;50.924;5.320;2023-06-10T08:21:40;16.63;;;10.38;;
25191;SDS011;13143;50.924;5.320;2023-06-10T08:24:07;22.20;;;9.90;;
25191;SDS011;13143;50.924;5.320;2023-06-10T08:26:33;19.50;;;9.63;;
25191;SDS011;13143;50.924;5.320;2023-06-10T08:28:59;13.52;;;10.25;;
25191;SDS011;13143;50.924;5.320;2023-06-10T08:31:25;15.07;;;9.23;;
25191;SDS011;13143;50.924;5.320;2023-06-10T08:33:51;14.05;;;9.30;;
25191;SDS011;13143;50.924;5.320;2023-06-10T08:36:17;18.58;;;9.05;;
25191;SDS011;13143;50.924;5.320;2023-06-10T08:38:43;14.25;;;9.90;;
25191;SDS011;13143;50.924;5.320;2023-06-10T08:41:09;18.20;;;9.88;;
25191;SDS011;13143;50.924;5.320;2023-06-10T08:43:42;13.40;;;9.30;;
25191;SDS011;13143;50.924;5.320;2023-06-10T08:46:11;16.63;;;9.57;;
25191;SDS011;13143;50.924;5.320;2023-06-10T08:48:41;18.17;;;9.82;;
25191;SDS011;13143;50.924;5.320;2023-06-10T08:51:09;11.52;;;9.68;;
25191;SDS011;13143;50.924;5.320;2023-06-10T08:53:37;20.15;;;9.95;;
25191;SDS011;13143;50.924;5.320;2023-06-10T08:56:11;12.65;;;9.52;;
25191;SDS011;13143;50.924;5.320;2023-06-10T08:58:38;15.05;;;9.43;;
25191;SDS011;13143;50.924;5.320;2023-06-10T09:01:10;13.65;;;9.95;;
25191;SDS011;13143;50.924;5.320;2023-06-10T09:03:37;14.75;;;9.45;;
25191;SDS011;13143;50.924;5.320;2023-06-10T09:06:06;11.57;;;9.10;;
25191;SDS011;13143;50.924;5.320;2023-06-10T09:08:33;13.43;;;9.50;;
25191;SDS011;13143;50.924;5.320;2023-06-10T09:11:02;13.57;;;9.70;;
25191;SDS011;13143;50.924;5.320;2023-06-10T09:13:29;13.05;;;9.57;;
25191;SDS011;13143;50.924;5.320;2023-06-10T09:15:55;14.48;;;9.88;;
25191;SDS011;13143;50.924;5.320;2023-06-10T09:18:26;14.18;;;8.98;;
25191;SDS011;13143;50.924;5.320;2023-06-10T09:20:52;13.90;;;9.77;;
25191;SDS011;13143;50.924;5.320;2023-06-10T09:23:19;13.57;;;9.63;;
25191;SDS011;13143;50.924;5.320;2023-06-10T09:25:45;14.95;;;9.10;;
25191;SDS011;13143;50.924;5.320;2023-06-10T09:28:14;14.25;;;9.27;;
25191;SDS011;13143;50.924;5.320;2023-06-10T09:30:41;12.82;;;9.20;;
25191;SDS011;13143;50.924;5.320;2023-06-10T09:33:11;11.38;;;8.65;;
25191;SDS011;13143;50.924;5.320;2023-06-10T09:35:44;10.25;;;7.95;;
25191;SDS011;13143;50.924;5.320;2023-06-10T09:38:12;13.73;;;8.88;;
25191;SDS011;13143;50.924;5.320;2023-06-10T09:40:53;11.35;;;8.60;;
25191;SDS011;13143;50.924;5.320;2023-06-10T09:43:20;12.68;;;8.38;;
25191;SDS011;13143;50.924;5.320;2023-06-10T09:45:50;16.85;;;8.55;;
25191;SDS011;13143;50.924;5.320;2023-06-10T09:48:19;12.95;;;9.15;;
25191;SDS011;13143;50.924;5.320;2023-06-10T09:50:45;13.57;;;8.80;;
25191;SDS011;13143;50.924;5.320;2023-06-10T09:53:12;8.88;;;7.97;;
25191;SDS011;13143;50.924;5.320;2023-06-10T09:55:38;11.88;;;7.65;;
25191;SDS011;13143;50.924;5.320;2023-06-10T09:58:05;10.60;;;8.32;;
25191;SDS011;13143;50.924;5.320;2023-06-10T10:00:32;11.65;;;8.90;;
25191;SDS011;13143;50.924;5.320;2023-06-10T10:02:59;17.55;;;8.93;;
25191;SDS011;13143;50.924;5.320;2023-06-10T10:05:26;12.52;;;8.63;;
25191;SDS011;13143;50.924;5.320;2023-06-10T10:07:53;9.25;;;8.10;;
25191;SDS011;13143;50.924;5.320;2023-06-10T10:10:21;15.02;;;9.30;;
25191;SDS011;13143;50.924;5.320;2023-06-10T10:12:48;10.40;;;7.85;;
25191;SDS011;13143;50.924;5.320;2023-06-10T10:15:19;11.57;;;8.15;;
25191;SDS011;13143;50.924;5.320;2023-06-10T10:18:06;13.10;;;8.70;;
25191;SDS011;13143;50.924;5.320;2023-06-10T10:20:35;11.95;;;8.90;;
25191;SDS011;13143;50.924;5.320;2023-06-10T10:23:07;10.30;;;8.30;;
25191;SDS011;13143;50.924;5.320;2023-06-10T10:25:37;8.57;;;7.68;;
25191;SDS011;13143;50.924;5.320;2023-06-10T10:28:09;11.95;;;7.78;;
25191;SDS011;13143;50.924;5.320;2023-06-10T10:30:41;19.42;;;7.72;;
25191;SDS011;13143;50.924;5.320;2023-06-10T10:33:15;13.23;;;8.20;;
25191;SDS011;13143;50.924;5.320;2023-06-10T10:35:45;10.98;;;8.02;;
25191;SDS011;13143;50.924;5.320;2023-06-10T10:38:12;11.52;;;7.60;;
25191;SDS011;13143;50.924;5.320;2023-06-10T10:40:38;9.45;;;6.90;;
25191;SDS011;13143;50.924;5.320;2023-06-10T10:43:05;11.02;;;7.90;;
25191;SDS011;13143;50.924;5.320;2023-06-10T10:45:33;14.18;;;7.70;;
25191;SDS011;13143;50.924;5.320;2023-06-10T10:48:01;14.48;;;7.95;;
25191;SDS011;13143;50.924;5.320;2023-06-10T10:50:38;9.05;;;7.70;;
25191;SDS011;13143;50.924;5.320;2023-06-10T10:53:06;8.77;;;7.88;;
25191;SDS011;13143;50.924;5.320;2023-06-10T10:55:32;11.55;;;7.63;;
25191;SDS011;13143;50.924;5.320;2023-06-10T11:03:08;11.85;;;7.70;;
25191;SDS011;13143;50.924;5.320;2023-06-10T11:05:40;9.85;;;7.65;;
25191;SDS011;13143;50.924;5.320;2023-06-10T11:08:10;13.10;;;7.13;;
25191;SDS011;13143;50.924;5.320;2023-06-10T11:10:40;11.80;;;7.38;;
25191;SDS011;13143;50.924;5.320;2023-06-10T11:13:15;11.63;;;6.43;;
25191;SDS011;13143;50.924;5.320;2023-06-10T11:15:49;10.00;;;6.90;;
25191;SDS011;13143;50.924;5.320;2023-06-10T11:18:22;11.85;;;7.18;;
25191;SDS011;13143;50.924;5.320;2023-06-10T11:20:53;15.45;;;7.18;;
25191;SDS011;13143;50.924;5.320;2023-06-10T11:26:09;11.63;;;7.30;;
25191;SDS011;13143;50.924;5.320;2023-06-10T11:31:22;12.27;;;7.35;;
25191;SDS011;13143;50.924;5.320;2023-06-10T11:33:55;9.88;;;7.38;;
25191;SDS011;13143;50.924;5.320;2023-06-10T11:36:26;10.23;;;7.15;;
25191;SDS011;13143;50.924;5.320;2023-06-10T11:39:03;12.02;;;7.35;;
25191;SDS011;13143;50.924;5.320;2023-06-10T11:41:31;10.90;;;7.47;;
25191;SDS011;13143;50.924;5.320;2023-06-10T11:44:08;9.90;;;6.50;;
25191;SDS011;13143;50.924;5.320;2023-06-10T11:46:36;13.02;;;6.90;;
25191;SDS011;13143;50.924;5.320;2023-06-10T11:49:03;16.02;;;7.35;;
25191;SDS011;13143;50.924;5.320;2023-06-10T11:51:39;15.48;;;6.90;;
25191;SDS011;13143;50.924;5.320;2023-06-10T11:54:14;14.13;;;7.07;;
25191;SDS011;13143;50.924;5.320;2023-06-10T11:56:41;12.90;;;6.60;;
25191;SDS011;13143;50.924;5.320;2023-06-10T11:59:07;10.45;;;7.28;;
25191;SDS011;13143;50.924;5.320;2023-06-10T12:01:34;8.32;;;6.95;;
25191;SDS011;13143;50.924;5.320;2023-06-10T12:09:19;15.75;;;6.80;;
25191;SDS011;13143;50.924;5.320;2023-06-10T12:11:59;7.20;;;6.50;;
25191;SDS011;13143;50.924;5.320;2023-06-10T12:19:59;9.25;;;6.78;;
25191;SDS011;13143;50.924;5.320;2023-06-10T12:22:26;10.27;;;7.28;;
25191;SDS011;13143;50.924;5.320;2023-06-10T12:25:01;15.15;;;6.60;;
25191;SDS011;13143;50.924;5.320;2023-06-10T12:27:29;12.38;;;6.70;;
25191;SDS011;13143;50.924;5.320;2023-06-10T12:29:57;7.55;;;6.82;;
25191;SDS011;13143;50.924;5.320;2023-06-10T12:32:42;16.40;;;7.20;;
25191;SDS011;13143;50.924;5.320;2023-06-10T12:35:10;9.50;;;6.53;;
25191;SDS011;13143;50.924;5.320;2023-06-10T12:37:38;9.43;;;7.10;;
25191;SDS011;13143;50.924;5.320;2023-06-10T12:40:05;10.45;;;6.70;;
25191;SDS011;13143;50.924;5.320;2023-06-10T12:42:33;9.77;;;6.50;;
25191;SDS011;13143;50.924;5.320;2023-06-10T12:45:02;10.98;;;7.32;;
25191;SDS011;13143;50.924;5.320;2023-06-10T12:47:36;7.30;;;6.60;;
25191;SDS011;13143;50.924;5.320;2023-06-10T12:50:07;10.20;;;7.35;;
25191;SDS011;13143;50.924;5.320;2023-06-10T12:52:34;8.68;;;6.65;;
25191;SDS011;13143;50.924;5.320;2023-06-10T12:55:00;8.13;;;6.95;;
25191;SDS011;13143;50.924;5.320;2023-06-10T12:57:27;10.18;;;7.10;;
25191;SDS011;13143;50.924;5.320;2023-06-10T12:59:53;8.02;;;6.55;;
25191;SDS011;13143;50.924;5.320;2023-06-10T13:02:22;11.40;;;7.57;;
25191;SDS011;13143;50.924;5.320;2023-06-10T13:04:50;11.25;;;6.90;;
25191;SDS011;13143;50.924;5.320;2023-06-10T13:07:16;11.80;;;7.15;;
25191;SDS011;13143;50.924;5.320;2023-06-10T13:09:43;9.82;;;6.85;;
25191;SDS011;13143;50.924;5.320;2023-06-10T13:12:09;11.88;;;6.55;;
25191;SDS011;13143;50.924;5.320;2023-06-10T13:14:36;16.05;;;7.28;;
25191;SDS011;13143;50.924;5.320;2023-06-10T13:17:03;70.15;;;11.23;;
25191;SDS011;13143;50.924;5.320;2023-06-10T13:19:34;26.85;;;7.82;;
25191;SDS011;13143;50.924;5.320;2023-06-10T13:22:00;15.88;;;7.07;;
25191;SDS011;13143;50.924;5.320;2023-06-10T13:24:26;8.88;;;6.57;;
25191;SDS011;13143;50.924;5.320;2023-06-10T13:26:53;8.48;;;6.35;;
25191;SDS011;13143;50.924;5.320;2023-06-10T13:29:20;9.18;;;6.72;;
25191;SDS011;13143;50.924;5.320;2023-06-10T13:31:46;10.25;;;6.60;;
25191;SDS011;13143;50.924;5.320;2023-06-10T13:34:12;12.65;;;6.90;;
25191;SDS011;13143;50.924;5.320;2023-06-10T13:36:39;10.10;;;6.32;;
25191;SDS011;13143;50.924;5.320;2023-06-10T13:39:05;8.60;;;6.32;;
25191;SDS011;13143;50.924;5.320;2023-06-10T13:41:31;9.13;;;6.57;;
25191;SDS011;13143;50.924;5.320;2023-06-10T13:43:57;7.10;;;6.18;;
25191;SDS011;13143;50.924;5.320;2023-06-10T13:46:23;8.82;;;6.43;;
25191;SDS011;13143;50.924;5.320;2023-06-10T13:48:49;8.18;;;6.43;;
25191;SDS011;13143;50.924;5.320;2023-06-10T13:51:15;11.07;;;6.38;;
25191;SDS011;13143;50.924;5.320;2023-06-10T13:53:41;13.50;;;6.60;;
25191;SDS011;13143;50.924;5.320;2023-06-10T13:56:08;9.93;;;7.10;;
25191;SDS011;13143;50.924;5.320;2023-06-10T13:58:34;9.32;;;6.85;;
25191;SDS011;13143;50.924;5.320;2023-06-10T14:01:04;12.10;;;6.95;;
25191;SDS011;13143;50.924;5.320;2023-06-10T14:03:31;7.93;;;6.70;;
25191;SDS011;13143;50.924;5.320;2023-06-10T14:05:57;8.95;;;6.80;;
25191;SDS011;13143;50.924;5.320;2023-06-10T14:08:23;8.55;;;5.93;;
25191;SDS011;13143;50.924;5.320;2023-06-10T14:10:49;10.23;;;5.75;;
25191;SDS011;13143;50.924;5.320;2023-06-10T14:13:18;6.85;;;5.70;;
25191;SDS011;13143;50.924;5.320;2023-06-10T14:15:45;7.82;;;6.03;;
25191;SDS011;13143;50.924;5.320;2023-06-10T14:18:12;7.47;;;6.20;;
25191;SDS011;13143;50.924;5.320;2023-06-10T14:20:38;10.02;;;6.07;;
25191;SDS011;13143;50.924;5.320;2023-06-10T14:23:04;7.47;;;6.03;;
25191;SDS011;13143;50.924;5.320;2023-06-10T14:25:30;10.63;;;6.30;;
25191;SDS011;13143;50.924;5.320;2023-06-10T14:27:56;11.02;;;6.57;;
25191;SDS011;13143;50.924;5.320;2023-06-10T14:30:23;10.43;;;6.47;;
25191;SDS011;13143;50.924;5.320;2023-06-10T14:32:49;9.32;;;6.13;;
25191;SDS011;13143;50.924;5.320;2023-06-10T14:35:16;9.00;;;7.00;;
25191;SDS011;13143;50.924;5.320;2023-06-10T14:37:42;15.13;;;6.63;;
25191;SDS011;13143;50.924;5.320;2023-06-10T14:40:08;9.32;;;6.30;;
25191;SDS011;13143;50.924;5.320;2023-06-10T14:42:34;10.18;;;6.75;;
25191;SDS011;13143;50.924;5.320;2023-06-10T14:45:00;11.73;;;7.57;;
25191;SDS011;13143;50.924;5.320;2023-06-10T14:47:27;10.88;;;6.50;;
25191;SDS011;13143;50.924;5.320;2023-06-10T14:49:53;8.75;;;6.35;;
25191;SDS011;13143;50.924;5.320;2023-06-10T14:52:19;9.07;;;6.25;;
25191;SDS011;13143;50.924;5.320;2023-06-10T14:54:45;10.50;;;7.53;;
25191;SDS011;13143;50.924;5.320;2023-06-10T14:57:11;10.48;;;7.05;;